Aeroporto :
LOGIN :

Iscrizione | Disclaimer

   EN    FR    IT 

 










Sommario :    VFR   VFR Marginale   IFR   IFR Intensivo   IFR Molto Intensivo
Visibilità : 
Base nubi : 
>= 8 km
>= 3000ft
5 / 8 km
1000 / 3000 ft
1500m / 5 km
500 / 1000 ft
800 / 1500m
200 / 500 ft
< 800m
< 200 ft
Simboli :   Temporali  Nebbia  Neve Forte  Precipitazioni Forti  Vento > 20 kt
SIGMETs :   Varie  Temporali  Ghiacco  Turbolenza  Onda orograficha  Ceneri Vulcaniche






- Altitudine del aeroporto : 791 ft
- Codice IATA : KRK


EPKK - Krakow-Balice

ULTIMO METAR :
  • 221530Z 05014KT CAVOK 05/03 Q1016

METARs OBSOLETI :
  • 221500Z 05014KT CAVOK 05/03 Q1016
  • 221430Z 06014KT CAVOK 06/04 Q1016
  • 221400Z 06013KT CAVOK 07/04 Q1016
  • 221330Z 07013KT CAVOK 08/05 Q1016
  • 221300Z 05014KT CAVOK 08/05 Q1016
  • 221230Z 05014KT CAVOK 08/05 Q1016

TAF TAF EPKK
Valido dal 22 a 15 ore il 23 a 15 ore UTC


221430Z 2215/2315 06012KT CAVOK
BECMG 2221/2224 2000 BR BKN006
TEMPO 2300/2308 0500 FG OVC002
BECMG 2307/2310 6000 BKN012
BECMG 2310/2312 CAVOK



MetMap, La meteo Aeronautica in un colpo d'occhio ! - Copyright ORBIFLY Dicembre 2007 - Disclaimer

ORBIFLY MET'MAP TEAM :

Programmazione e sviluppo : Alexandra Zaïnal
Concezione e sviluppo : Baudouin d'Aumeries
Co-Programmazione e sviluppo : Marc-Olivier Méhu
Supporto tecnico e logistico : Manuel Goepfert
Aiuto per la traduzione : Arnaldo La Scala

Contatto : metmap@orbifly.com




FONTI E CREDITI :

   NOAA